sensor_id;sensor_type;location;lat;lon;timestamp;pressure;altitude;pressure_sealevel;temperature;humidity
57847;BME280;43675;50.030;21.952;2023-05-19T00:02:16;99581.05;;;9.28;85.44
57847;BME280;43675;50.030;21.952;2023-05-19T00:04:43;99579.34;;;9.29;85.20
57847;BME280;43675;50.030;21.952;2023-05-19T00:07:10;99577.73;;;9.29;85.27
57847;BME280;43675;50.030;21.952;2023-05-19T00:09:37;99580.83;;;9.27;85.26
57847;BME280;43675;50.030;21.952;2023-05-19T00:12:04;99583.23;;;9.28;85.43
57847;BME280;43675;50.030;21.952;2023-05-19T00:14:30;99583.66;;;9.29;85.40
57847;BME280;43675;50.030;21.952;2023-05-19T00:16:57;99580.08;;;9.28;85.44
57847;BME280;43675;50.030;21.952;2023-05-19T00:19:24;99578.52;;;9.27;85.32
57847;BME280;43675;50.030;21.952;2023-05-19T00:21:51;99583.06;;;9.28;85.28
57847;BME280;43675;50.030;21.952;2023-05-19T00:24:17;99587.89;;;9.26;85.41
57847;BME280;43675;50.030;21.952;2023-05-19T00:26:44;99588.20;;;9.24;85.39
57847;BME280;43675;50.030;21.952;2023-05-19T00:29:10;99585.30;;;9.23;85.51
57847;BME280;43675;50.030;21.952;2023-05-19T00:31:37;99585.27;;;9.23;85.49
57847;BME280;43675;50.030;21.952;2023-05-19T00:34:03;99587.23;;;9.23;85.53
57847;BME280;43675;50.030;21.952;2023-05-19T00:36:30;99587.23;;;9.24;85.43
57847;BME280;43675;50.030;21.952;2023-05-19T00:38:56;99585.83;;;9.25;85.67
57847;BME280;43675;50.030;21.952;2023-05-19T00:41:23;99582.22;;;9.26;85.57
57847;BME280;43675;50.030;21.952;2023-05-19T00:43:50;99582.58;;;9.26;85.54
57847;BME280;43675;50.030;21.952;2023-05-19T00:46:18;99581.02;;;9.25;85.31
57847;BME280;43675;50.030;21.952;2023-05-19T00:48:44;99582.66;;;9.25;85.57
57847;BME280;43675;50.030;21.952;2023-05-19T00:51:11;99580.73;;;9.26;85.44
57847;BME280;43675;50.030;21.952;2023-05-19T00:53:39;99584.40;;;9.28;85.69
57847;BME280;43675;50.030;21.952;2023-05-19T00:56:06;99581.35;;;9.31;85.57
57847;BME280;43675;50.030;21.952;2023-05-19T00:58:33;99583.73;;;9.34;85.56
57847;BME280;43675;50.030;21.952;2023-05-19T01:01:00;99582.59;;;9.37;85.59
57847;BME280;43675;50.030;21.952;2023-05-19T01:03:31;99578.64;;;9.40;85.50
57847;BME280;43675;50.030;21.952;2023-05-19T01:05:58;99580.29;;;9.43;85.51
57847;BME280;43675;50.030;21.952;2023-05-19T01:08:24;99581.88;;;9.47;85.14
57847;BME280;43675;50.030;21.952;2023-05-19T01:10:51;99583.57;;;9.48;85.08
57847;BME280;43675;50.030;21.952;2023-05-19T01:13:18;99585.58;;;9.48;85.25
57847;BME280;43675;50.030;21.952;2023-05-19T01:18:39;99588.27;;;9.46;85.27
57847;BME280;43675;50.030;21.952;2023-05-19T01:21:35;99585.50;;;9.47;85.30
57847;BME280;43675;50.030;21.952;2023-05-19T01:29:41;99580.84;;;9.47;85.24
57847;BME280;43675;50.030;21.952;2023-05-19T01:32:17;99580.73;;;9.48;85.28
57847;BME280;43675;50.030;21.952;2023-05-19T01:34:48;99584.05;;;9.50;85.27
57847;BME280;43675;50.030;21.952;2023-05-19T01:37:16;99582.94;;;9.51;85.10
57847;BME280;43675;50.030;21.952;2023-05-19T01:39:45;99580.83;;;9.50;85.21
57847;BME280;43675;50.030;21.952;2023-05-19T01:42:12;99580.38;;;9.50;85.02
57847;BME280;43675;50.030;21.952;2023-05-19T01:44:40;99579.82;;;9.48;85.11
57847;BME280;43675;50.030;21.952;2023-05-19T01:47:08;99577.58;;;9.47;85.07
57847;BME280;43675;50.030;21.952;2023-05-19T01:49:35;99577.96;;;9.46;85.14
57847;BME280;43675;50.030;21.952;2023-05-19T01:52:05;99579.29;;;9.45;85.04
57847;BME280;43675;50.030;21.952;2023-05-19T01:54:31;99578.11;;;9.45;85.13
57847;BME280;43675;50.030;21.952;2023-05-19T02:05:13;99572.73;;;9.36;85.09
57847;BME280;43675;50.030;21.952;2023-05-19T02:07:49;99574.27;;;9.38;85.17
57847;BME280;43675;50.030;21.952;2023-05-19T02:10:28;99574.24;;;9.41;85.01
57847;BME280;43675;50.030;21.952;2023-05-19T02:12:58;99571.98;;;9.42;85.05
57847;BME280;43675;50.030;21.952;2023-05-19T02:15:30;99571.13;;;9.43;85.11
57847;BME280;43675;50.030;21.952;2023-05-19T02:17:57;99574.56;;;9.42;85.11
57847;BME280;43675;50.030;21.952;2023-05-19T02:20:24;99574.52;;;9.40;85.16
57847;BME280;43675;50.030;21.952;2023-05-19T02:22:51;99570.31;;;9.40;85.11
57847;BME280;43675;50.030;21.952;2023-05-19T02:25:19;99566.85;;;9.37;85.23
57847;BME280;43675;50.030;21.952;2023-05-19T02:27:46;99568.08;;;9.34;85.13
57847;BME280;43675;50.030;21.952;2023-05-19T02:30:12;99569.11;;;9.34;85.28
57847;BME280;43675;50.030;21.952;2023-05-19T02:32:39;99560.00;;;9.34;85.35
57847;BME280;43675;50.030;21.952;2023-05-19T02:35:06;99560.50;;;9.34;85.29
57847;BME280;43675;50.030;21.952;2023-05-19T02:37:35;99558.58;;;9.35;85.41
57847;BME280;43675;50.030;21.952;2023-05-19T02:40:02;99558.52;;;9.38;85.22
57847;BME280;43675;50.030;21.952;2023-05-19T02:42:29;99557.99;;;9.38;85.20
57847;BME280;43675;50.030;21.952;2023-05-19T02:44:56;99557.80;;;9.38;85.19
57847;BME280;43675;50.030;21.952;2023-05-19T02:47:23;99560.19;;;9.38;85.05
57847;BME280;43675;50.030;21.952;2023-05-19T02:49:49;99560.14;;;9.37;85.16
57847;BME280;43675;50.030;21.952;2023-05-19T02:52:16;99559.54;;;9.36;85.07
57847;BME280;43675;50.030;21.952;2023-05-19T02:54:42;99561.98;;;9.36;85.29
57847;BME280;43675;50.030;21.952;2023-05-19T02:57:09;99565.87;;;9.38;85.22
57847;BME280;43675;50.030;21.952;2023-05-19T02:59:36;99556.95;;;9.37;85.17
57847;BME280;43675;50.030;21.952;2023-05-19T03:02:02;99557.16;;;9.36;85.19
57847;BME280;43675;50.030;21.952;2023-05-19T03:04:29;99554.90;;;9.37;85.35
57847;BME280;43675;50.030;21.952;2023-05-19T03:06:56;99560.14;;;9.38;85.25
57847;BME280;43675;50.030;21.952;2023-05-19T03:09:23;99558.81;;;9.40;85.07
57847;BME280;43675;50.030;21.952;2023-05-19T03:11:49;99560.66;;;9.41;85.25
57847;BME280;43675;50.030;21.952;2023-05-19T03:14:16;99562.47;;;9.42;85.25
57847;BME280;43675;50.030;21.952;2023-05-19T03:16:42;99561.09;;;9.44;85.34
57847;BME280;43675;50.030;21.952;2023-05-19T03:19:09;99563.13;;;9.46;85.26
57847;BME280;43675;50.030;21.952;2023-05-19T03:21:35;99566.63;;;9.48;85.18
57847;BME280;43675;50.030;21.952;2023-05-19T03:24:02;99571.82;;;9.49;85.14
57847;BME280;43675;50.030;21.952;2023-05-19T03:26:29;99572.45;;;9.52;85.16
57847;BME280;43675;50.030;21.952;2023-05-19T03:28:55;99571.91;;;9.55;85.08
57847;BME280;43675;50.030;21.952;2023-05-19T03:31:22;99572.75;;;9.57;85.08
57847;BME280;43675;50.030;21.952;2023-05-19T03:33:49;99575.61;;;9.58;85.04
57847;BME280;43675;50.030;21.952;2023-05-19T03:36:15;99576.18;;;9.59;85.06
57847;BME280;43675;50.030;21.952;2023-05-19T03:38:42;99580.59;;;9.60;84.78
57847;BME280;43675;50.030;21.952;2023-05-19T03:41:08;99584.19;;;9.61;84.65
57847;BME280;43675;50.030;21.952;2023-05-19T03:43:35;99584.27;;;9.61;84.65
57847;BME280;43675;50.030;21.952;2023-05-19T03:46:01;99581.52;;;9.62;84.60
57847;BME280;43675;50.030;21.952;2023-05-19T03:48:28;99582.79;;;9.64;84.77
57847;BME280;43675;50.030;21.952;2023-05-19T03:50:54;99580.48;;;9.65;84.76
57847;BME280;43675;50.030;21.952;2023-05-19T03:53:21;99583.15;;;9.66;84.69
57847;BME280;43675;50.030;21.952;2023-05-19T03:55:48;99586.28;;;9.67;84.62
57847;BME280;43675;50.030;21.952;2023-05-19T03:58:15;99586.23;;;9.69;84.67
57847;BME280;43675;50.030;21.952;2023-05-19T04:00:41;99588.33;;;9.69;84.56
57847;BME280;43675;50.030;21.952;2023-05-19T04:03:08;99587.05;;;9.67;84.40
57847;BME280;43675;50.030;21.952;2023-05-19T04:05:34;99588.55;;;9.63;84.42
57847;BME280;43675;50.030;21.952;2023-05-19T04:08:01;99587.83;;;9.62;84.51
57847;BME280;43675;50.030;21.952;2023-05-19T04:10:28;99589.06;;;9.61;84.43
57847;BME280;43675;50.030;21.952;2023-05-19T04:12:54;99590.37;;;9.60;84.46
57847;BME280;43675;50.030;21.952;2023-05-19T04:15:21;99591.89;;;9.61;84.37
57847;BME280;43675;50.030;21.952;2023-05-19T04:17:48;99590.42;;;9.58;84.61
57847;BME280;43675;50.030;21.952;2023-05-19T04:20:14;99595.05;;;9.63;84.55
57847;BME280;43675;50.030;21.952;2023-05-19T04:22:41;99598.75;;;9.65;84.46
57847;BME280;43675;50.030;21.952;2023-05-19T04:25:07;99598.92;;;9.66;84.32
57847;BME280;43675;50.030;21.952;2023-05-19T04:27:34;99600.51;;;9.69;84.35
57847;BME280;43675;50.030;21.952;2023-05-19T04:30:02;99602.61;;;9.74;84.16
57847;BME280;43675;50.030;21.952;2023-05-19T04:32:28;99601.43;;;9.78;84.11
57847;BME280;43675;50.030;21.952;2023-05-19T04:34:56;99603.02;;;9.82;84.23
57847;BME280;43675;50.030;21.952;2023-05-19T04:37:23;99602.59;;;9.87;84.11
57847;BME280;43675;50.030;21.952;2023-05-19T04:39:50;99597.89;;;9.93;83.94
57847;BME280;43675;50.030;21.952;2023-05-19T04:42:17;99597.50;;;9.99;83.82
57847;BME280;43675;50.030;21.952;2023-05-19T04:44:46;99596.02;;;10.07;83.87
57847;BME280;43675;50.030;21.952;2023-05-19T04:47:13;99594.02;;;10.13;83.69
57847;BME280;43675;50.030;21.952;2023-05-19T04:49:39;99589.52;;;10.16;83.53
57847;BME280;43675;50.030;21.952;2023-05-19T04:52:07;99589.95;;;10.21;83.54
57847;BME280;43675;50.030;21.952;2023-05-19T04:54:34;99592.25;;;10.29;83.40
57847;BME280;43675;50.030;21.952;2023-05-19T04:57:01;99589.33;;;10.37;83.12
57847;BME280;43675;50.030;21.952;2023-05-19T04:59:27;99586.29;;;10.39;82.89
57847;BME280;43675;50.030;21.952;2023-05-19T05:01:54;99591.05;;;10.35;82.45
57847;BME280;43675;50.030;21.952;2023-05-19T05:04:22;99592.66;;;10.32;82.67
57847;BME280;43675;50.030;21.952;2023-05-19T05:06:48;99594.21;;;10.34;82.76
57847;BME280;43675;50.030;21.952;2023-05-19T05:09:16;99598.99;;;10.45;82.92
57847;BME280;43675;50.030;21.952;2023-05-19T05:11:43;99599.77;;;10.57;82.62
57847;BME280;43675;50.030;21.952;2023-05-19T05:14:10;99599.73;;;10.67;82.40
57847;BME280;43675;50.030;21.952;2023-05-19T05:16:37;99597.27;;;10.78;82.08
57847;BME280;43675;50.030;21.952;2023-05-19T05:19:04;99599.55;;;10.88;81.87
57847;BME280;43675;50.030;21.952;2023-05-19T05:21:31;99601.94;;;10.98;81.59
57847;BME280;43675;50.030;21.952;2023-05-19T05:23:58;99600.86;;;11.06;81.12
57847;BME280;43675;50.030;21.952;2023-05-19T05:26:29;99604.45;;;11.14;81.10
57847;BME280;43675;50.030;21.952;2023-05-19T05:28:55;99605.80;;;11.22;80.72
57847;BME280;43675;50.030;21.952;2023-05-19T05:31:22;99607.99;;;11.28;80.64
57847;BME280;43675;50.030;21.952;2023-05-19T05:33:48;99611.63;;;11.33;80.22
57847;BME280;43675;50.030;21.952;2023-05-19T05:36:15;99608.73;;;11.35;80.07
57847;BME280;43675;50.030;21.952;2023-05-19T05:38:42;99609.56;;;11.34;79.92
57847;BME280;43675;50.030;21.952;2023-05-19T05:41:08;99609.02;;;11.32;79.67
57847;BME280;43675;50.030;21.952;2023-05-19T05:43:35;99608.04;;;11.24;79.34
57847;BME280;43675;50.030;21.952;2023-05-19T05:46:01;99607.55;;;11.18;79.34
57847;BME280;43675;50.030;21.952;2023-05-19T05:48:28;99606.44;;;11.13;79.44
57847;BME280;43675;50.030;21.952;2023-05-19T05:50:56;99602.36;;;11.10;79.36
57847;BME280;43675;50.030;21.952;2023-05-19T05:53:24;99603.58;;;11.07;79.38
57847;BME280;43675;50.030;21.952;2023-05-19T05:55:51;99605.35;;;11.10;79.53
57847;BME280;43675;50.030;21.952;2023-05-19T05:58:17;99605.89;;;11.29;79.22
57847;BME280;43675;50.030;21.952;2023-05-19T06:00:44;99609.64;;;11.42;78.89
57847;BME280;43675;50.030;21.952;2023-05-19T06:03:11;99611.20;;;11.38;78.76
57847;BME280;43675;50.030;21.952;2023-05-19T06:05:37;99606.09;;;11.32;78.62
57847;BME280;43675;50.030;21.952;2023-05-19T06:08:04;99605.36;;;11.31;78.73
57847;BME280;43675;50.030;21.952;2023-05-19T06:10:30;99605.70;;;11.32;78.68
57847;BME280;43675;50.030;21.952;2023-05-19T06:12:57;99605.73;;;11.35;78.56
57847;BME280;43675;50.030;21.952;2023-05-19T06:15:24;99606.34;;;11.34;78.53
57847;BME280;43675;50.030;21.952;2023-05-19T06:17:50;99604.50;;;11.33;78.33
57847;BME280;43675;50.030;21.952;2023-05-19T06:20:17;99604.54;;;11.33;78.34
57847;BME280;43675;50.030;21.952;2023-05-19T06:22:43;99608.10;;;11.33;78.32
57847;BME280;43675;50.030;21.952;2023-05-19T06:25:10;99608.34;;;11.35;78.26
57847;BME280;43675;50.030;21.952;2023-05-19T06:27:37;99612.44;;;11.38;78.25
57847;BME280;43675;50.030;21.952;2023-05-19T06:30:04;99613.62;;;11.42;78.09
57847;BME280;43675;50.030;21.952;2023-05-19T06:32:30;99615.14;;;11.46;77.95
57847;BME280;43675;50.030;21.952;2023-05-19T06:34:57;99618.71;;;11.49;77.82
57847;BME280;43675;50.030;21.952;2023-05-19T06:37:23;99620.16;;;11.55;77.65
57847;BME280;43675;50.030;21.952;2023-05-19T06:39:52;99622.19;;;11.61;77.61
57847;BME280;43675;50.030;21.952;2023-05-19T06:42:19;99627.38;;;11.67;77.49
57847;BME280;43675;50.030;21.952;2023-05-19T06:44:47;99627.00;;;11.74;77.24
57847;BME280;43675;50.030;21.952;2023-05-19T06:47:14;99626.34;;;11.82;77.14
57847;BME280;43675;50.030;21.952;2023-05-19T06:49:41;99631.58;;;11.86;76.89
57847;BME280;43675;50.030;21.952;2023-05-19T06:52:07;99629.73;;;11.88;76.73
57847;BME280;43675;50.030;21.952;2023-05-19T06:54:34;99630.45;;;11.86;76.72
57847;BME280;43675;50.030;21.952;2023-05-19T06:57:01;99631.12;;;11.88;76.69
57847;BME280;43675;50.030;21.952;2023-05-19T06:59:27;99632.77;;;11.94;76.63
57847;BME280;43675;50.030;21.952;2023-05-19T07:01:57;99633.53;;;11.98;76.49
57847;BME280;43675;50.030;21.952;2023-05-19T07:04:23;99635.71;;;12.03;76.26
57847;BME280;43675;50.030;21.952;2023-05-19T07:06:50;99634.48;;;12.07;75.97
57847;BME280;43675;50.030;21.952;2023-05-19T07:09:16;99631.02;;;12.13;75.84
57847;BME280;43675;50.030;21.952;2023-05-19T07:11:43;99628.12;;;12.18;75.84
57847;BME280;43675;50.030;21.952;2023-05-19T07:14:09;99630.16;;;12.24;75.76
57847;BME280;43675;50.030;21.952;2023-05-19T07:16:36;99628.57;;;12.33;75.56
57847;BME280;43675;50.030;21.952;2023-05-19T07:19:02;99626.29;;;12.42;75.44
57847;BME280;43675;50.030;21.952;2023-05-19T07:21:29;99623.27;;;12.48;74.96
57847;BME280;43675;50.030;21.952;2023-05-19T07:23:55;99627.67;;;12.50;74.64
57847;BME280;43675;50.030;21.952;2023-05-19T07:26:22;99628.98;;;12.47;74.40
57847;BME280;43675;50.030;21.952;2023-05-19T07:28:48;99633.21;;;12.45;74.46
57847;BME280;43675;50.030;21.952;2023-05-19T07:31:15;99630.77;;;12.45;74.36
57847;BME280;43675;50.030;21.952;2023-05-19T07:33:41;99630.99;;;12.44;74.34
57847;BME280;43675;50.030;21.952;2023-05-19T07:36:08;99632.77;;;12.47;74.34
57847;BME280;43675;50.030;21.952;2023-05-19T07:38:34;99628.21;;;12.54;74.33
57847;BME280;43675;50.030;21.952;2023-05-19T07:41:01;99626.04;;;12.63;74.27
57847;BME280;43675;50.030;21.952;2023-05-19T07:43:28;99626.48;;;12.71;73.93
57847;BME280;43675;50.030;21.952;2023-05-19T07:45:55;99625.97;;;12.76;73.95
57847;BME280;43675;50.030;21.952;2023-05-19T07:48:22;99627.21;;;12.80;73.86
57847;BME280;43675;50.030;21.952;2023-05-19T07:50:50;99627.92;;;12.86;73.72
57847;BME280;43675;50.030;21.952;2023-05-19T07:53:20;99629.97;;;12.90;73.74
57847;BME280;43675;50.030;21.952;2023-05-19T07:55:47;99632.13;;;12.94;73.44
57847;BME280;43675;50.030;21.952;2023-05-19T07:58:14;99630.88;;;12.95;73.14
57847;BME280;43675;50.030;21.952;2023-05-19T08:00:40;99634.00;;;12.96;72.94
57847;BME280;43675;50.030;21.952;2023-05-19T08:03:08;99633.29;;;12.96;72.82
57847;BME280;43675;50.030;21.952;2023-05-19T08:05:35;99630.96;;;12.93;72.78
57847;BME280;43675;50.030;21.952;2023-05-19T08:08:02;99633.56;;;12.94;72.75
57847;BME280;43675;50.030;21.952;2023-05-19T08:10:29;99635.20;;;12.98;72.72
57847;BME280;43675;50.030;21.952;2023-05-19T08:12:55;99634.98;;;13.05;72.86
57847;BME280;43675;50.030;21.952;2023-05-19T08:15:23;99634.92;;;13.11;72.67
57847;BME280;43675;50.030;21.952;2023-05-19T08:17:50;99630.95;;;13.16;72.43
57847;BME280;43675;50.030;21.952;2023-05-19T08:20:16;99631.45;;;13.20;72.15
57847;BME280;43675;50.030;21.952;2023-05-19T08:22:43;99629.41;;;13.22;71.91
57847;BME280;43675;50.030;21.952;2023-05-19T08:25:09;99634.98;;;13.21;71.83
57847;BME280;43675;50.030;21.952;2023-05-19T08:27:36;99630.38;;;13.20;71.75
57847;BME280;43675;50.030;21.952;2023-05-19T08:30:03;99627.90;;;13.20;71.73
57847;BME280;43675;50.030;21.952;2023-05-19T08:32:30;99629.21;;;13.18;71.57
57847;BME280;43675;50.030;21.952;2023-05-19T08:34:56;99631.54;;;13.13;71.51
57847;BME280;43675;50.030;21.952;2023-05-19T08:37:23;99631.39;;;13.07;71.43
57847;BME280;43675;50.030;21.952;2023-05-19T08:39:49;99633.62;;;13.04;71.51
57847;BME280;43675;50.030;21.952;2023-05-19T08:42:16;99632.04;;;13.03;71.54
57847;BME280;43675;50.030;21.952;2023-05-19T08:44:43;99636.19;;;13.04;71.66
57847;BME280;43675;50.030;21.952;2023-05-19T08:47:09;99638.63;;;13.07;71.79
57847;BME280;43675;50.030;21.952;2023-05-19T08:49:42;99640.33;;;13.12;71.77
57847;BME280;43675;50.030;21.952;2023-05-19T08:52:21;99642.48;;;13.18;71.78
57847;BME280;43675;50.030;21.952;2023-05-19T08:54:59;99644.69;;;13.24;71.62
57847;BME280;43675;50.030;21.952;2023-05-19T08:57:29;99646.46;;;13.27;71.50
57847;BME280;43675;50.030;21.952;2023-05-19T08:59:57;99645.95;;;13.29;71.36
57847;BME280;43675;50.030;21.952;2023-05-19T09:02:24;99644.27;;;13.24;71.09
57847;BME280;43675;50.030;21.952;2023-05-19T09:04:53;99644.69;;;13.21;71.22
57847;BME280;43675;50.030;21.952;2023-05-19T09:07:21;99642.45;;;13.20;71.32
57847;BME280;43675;50.030;21.952;2023-05-19T09:09:49;99640.17;;;13.20;71.37
57847;BME280;43675;50.030;21.952;2023-05-19T09:12:16;99637.84;;;13.18;71.41
57847;BME280;43675;50.030;21.952;2023-05-19T09:14:43;99638.25;;;13.15;71.19
57847;BME280;43675;50.030;21.952;2023-05-19T09:17:09;99635.34;;;13.09;71.15
57847;BME280;43675;50.030;21.952;2023-05-19T09:19:41;99634.78;;;13.04;71.32
57847;BME280;43675;50.030;21.952;2023-05-19T09:22:08;99637.48;;;13.01;71.32
57847;BME280;43675;50.030;21.952;2023-05-19T09:24:35;99632.70;;;13.03;71.53
57847;BME280;43675;50.030;21.952;2023-05-19T09:27:03;99634.27;;;13.10;71.41
57847;BME280;43675;50.030;21.952;2023-05-19T09:29:30;99628.58;;;13.15;71.38
57847;BME280;43675;50.030;21.952;2023-05-19T09:31:56;99627.22;;;13.25;71.20
57847;BME280;43675;50.030;21.952;2023-05-19T09:34:23;99628.79;;;13.35;71.19
57847;BME280;43675;50.030;21.952;2023-05-19T09:36:50;99626.70;;;13.44;70.97
57847;BME280;43675;50.030;21.952;2023-05-19T09:39:18;99624.16;;;13.50;70.55
57847;BME280;43675;50.030;21.952;2023-05-19T09:41:44;99624.37;;;13.52;70.58
57847;BME280;43675;50.030;21.952;2023-05-19T09:44:26;99619.00;;;13.61;70.51
57847;BME280;43675;50.030;21.952;2023-05-19T09:46:54;99626.81;;;13.72;70.21
57847;BME280;43675;50.030;21.952;2023-05-19T09:49:22;99622.27;;;13.82;70.10
57847;BME280;43675;50.030;21.952;2023-05-19T09:51:56;99619.43;;;13.94;69.79
57847;BME280;43675;50.030;21.952;2023-05-19T09:54:24;99620.48;;;14.03;69.36
57847;BME280;43675;50.030;21.952;2023-05-19T09:56:58;99620.79;;;14.10;69.42
57847;BME280;43675;50.030;21.952;2023-05-19T09:59:25;99625.28;;;14.17;69.31
57847;BME280;43675;50.030;21.952;2023-05-19T10:01:56;99624.06;;;14.30;69.18
57847;BME280;43675;50.030;21.952;2023-05-19T10:04:29;99625.97;;;14.42;68.60
57847;BME280;43675;50.030;21.952;2023-05-19T10:06:57;99628.49;;;14.52;68.36
57847;BME280;43675;50.030;21.952;2023-05-19T10:09:25;99625.90;;;14.60;67.96
57847;BME280;43675;50.030;21.952;2023-05-19T10:11:53;99626.97;;;14.64;67.83
57847;BME280;43675;50.030;21.952;2023-05-19T10:14:22;99629.38;;;14.57;67.32
57847;BME280;43675;50.030;21.952;2023-05-19T10:16:50;99626.75;;;14.53;67.55
57847;BME280;43675;50.030;21.952;2023-05-19T10:19:22;99628.49;;;14.52;67.61
57847;BME280;43675;50.030;21.952;2023-05-19T10:21:49;99628.65;;;14.47;67.64
57847;BME280;43675;50.030;21.952;2023-05-19T10:24:17;99630.75;;;14.44;67.82
57847;BME280;43675;50.030;21.952;2023-05-19T10:26:52;99627.31;;;14.42;67.79
57847;BME280;43675;50.030;21.952;2023-05-19T10:29:27;99627.95;;;14.46;67.86
57847;BME280;43675;50.030;21.952;2023-05-19T10:31:56;99623.32;;;14.54;67.73
57847;BME280;43675;50.030;21.952;2023-05-19T10:39:55;99616.02;;;14.85;66.97
57847;BME280;43675;50.030;21.952;2023-05-19T10:42:39;99614.34;;;14.92;66.80
57847;BME280;43675;50.030;21.952;2023-05-19T10:45:14;99613.95;;;14.99;66.72
57847;BME280;43675;50.030;21.952;2023-05-19T10:47:43;99615.24;;;14.99;66.41
57847;BME280;43675;50.030;21.952;2023-05-19T10:50:10;99617.44;;;14.95;66.34
57847;BME280;43675;50.030;21.952;2023-05-19T10:52:37;99617.35;;;14.91;66.31
57847;BME280;43675;50.030;21.952;2023-05-19T10:55:13;99611.42;;;14.87;66.19
57847;BME280;43675;50.030;21.952;2023-05-19T10:57:55;99613.23;;;14.84;66.22
57847;BME280;43675;50.030;21.952;2023-05-19T11:00:29;99617.70;;;14.79;66.15
57847;BME280;43675;50.030;21.952;2023-05-19T11:03:16;99612.80;;;14.74;66.11
57847;BME280;43675;50.030;21.952;2023-05-19T11:05:43;99606.48;;;14.75;66.30
57847;BME280;43675;50.030;21.952;2023-05-19T11:08:10;99608.34;;;14.85;66.47
57847;BME280;43675;50.030;21.952;2023-05-19T11:10:38;99608.63;;;14.98;66.31
57847;BME280;43675;50.030;21.952;2023-05-19T11:13:04;99611.08;;;15.18;66.17
57847;BME280;43675;50.030;21.952;2023-05-19T11:15:34;99612.46;;;15.37;65.67
57847;BME280;43675;50.030;21.952;2023-05-19T11:18:01;99614.30;;;15.55;65.20
57847;BME280;43675;50.030;21.952;2023-05-19T11:20:30;99616.84;;;15.75;64.92
57847;BME280;43675;50.030;21.952;2023-05-19T11:25:49;99611.31;;;16.09;64.08
57847;BME280;43675;50.030;21.952;2023-05-19T11:28:18;99612.34;;;16.24;63.63
57847;BME280;43675;50.030;21.952;2023-05-19T11:30:46;99614.22;;;16.39;62.97
57847;BME280;43675;50.030;21.952;2023-05-19T11:33:13;99610.70;;;16.53;62.80
57847;BME280;43675;50.030;21.952;2023-05-19T11:35:40;99612.89;;;16.59;62.48
57847;BME280;43675;50.030;21.952;2023-05-19T11:38:07;99611.87;;;16.57;62.25
57847;BME280;43675;50.030;21.952;2023-05-19T11:40:34;99612.96;;;16.54;62.19
57847;BME280;43675;50.030;21.952;2023-05-19T11:43:01;99611.25;;;16.51;62.19
57847;BME280;43675;50.030;21.952;2023-05-19T11:45:30;99613.90;;;16.43;62.27
57847;BME280;43675;50.030;21.952;2023-05-19T11:47:57;99610.07;;;16.32;62.43
57847;BME280;43675;50.030;21.952;2023-05-19T11:50:24;99615.14;;;16.20;62.47
57847;BME280;43675;50.030;21.952;2023-05-19T11:52:53;99616.20;;;16.08;62.58
57847;BME280;43675;50.030;21.952;2023-05-19T11:55:21;99617.67;;;15.93;62.79
57847;BME280;43675;50.030;21.952;2023-05-19T12:00:21;99620.67;;;15.79;63.03
57847;BME280;43675;50.030;21.952;2023-05-19T12:02:48;99620.97;;;15.78;63.14
57847;BME280;43675;50.030;21.952;2023-05-19T12:05:19;99619.02;;;15.80;63.09
57847;BME280;43675;50.030;21.952;2023-05-19T12:07:46;99619.09;;;15.81;63.09
57847;BME280;43675;50.030;21.952;2023-05-19T12:10:13;99619.52;;;15.85;63.14
57847;BME280;43675;50.030;21.952;2023-05-19T12:12:41;99618.05;;;15.89;63.04
57847;BME280;43675;50.030;21.952;2023-05-19T12:15:08;99614.91;;;15.95;62.85
57847;BME280;43675;50.030;21.952;2023-05-19T12:17:35;99615.56;;;16.02;62.59
57847;BME280;43675;50.030;21.952;2023-05-19T12:20:02;99619.30;;;16.10;62.30
57847;BME280;43675;50.030;21.952;2023-05-19T12:22:29;99616.33;;;16.16;62.27
57847;BME280;43675;50.030;21.952;2023-05-19T12:24:56;99618.50;;;16.22;62.32
57847;BME280;43675;50.030;21.952;2023-05-19T12:27:23;99617.95;;;16.25;62.05
57847;BME280;43675;50.030;21.952;2023-05-19T12:29:52;99613.61;;;16.29;61.78
57847;BME280;43675;50.030;21.952;2023-05-19T12:32:26;99611.28;;;16.37;61.68
57847;BME280;43675;50.030;21.952;2023-05-19T12:34:56;99608.33;;;16.43;61.48
57847;BME280;43675;50.030;21.952;2023-05-19T12:37:26;99608.46;;;16.54;61.42
57847;BME280;43675;50.030;21.952;2023-05-19T12:39:54;99604.84;;;16.68;61.36
57847;BME280;43675;50.030;21.952;2023-05-19T12:42:22;99604.64;;;16.73;60.87
57847;BME280;43675;50.030;21.952;2023-05-19T12:44:50;99602.69;;;16.71;60.58
57847;BME280;43675;50.030;21.952;2023-05-19T12:47:19;99600.41;;;16.62;60.64
57847;BME280;43675;50.030;21.952;2023-05-19T12:50:05;99603.10;;;16.44;60.69
57847;BME280;43675;50.030;21.952;2023-05-19T12:52:45;99603.73;;;16.28;60.93
57847;BME280;43675;50.030;21.952;2023-05-19T12:55:13;99608.00;;;16.08;61.33
57847;BME280;43675;50.030;21.952;2023-05-19T12:57:41;99608.78;;;15.98;61.73
57847;BME280;43675;50.030;21.952;2023-05-19T13:00:17;99607.28;;;15.88;61.87
57847;BME280;43675;50.030;21.952;2023-05-19T13:03:03;99610.62;;;15.76;62.22
57847;BME280;43675;50.030;21.952;2023-05-19T13:05:39;99613.73;;;15.63;62.47
57847;BME280;43675;50.030;21.952;2023-05-19T13:08:08;99610.48;;;15.49;62.83
57847;BME280;43675;50.030;21.952;2023-05-19T13:10:36;99609.58;;;15.33;62.79
57847;BME280;43675;50.030;21.952;2023-05-19T13:13:04;99606.73;;;15.15;63.15
57847;BME280;43675;50.030;21.952;2023-05-19T13:15:32;99613.33;;;15.05;63.57
57847;BME280;43675;50.030;21.952;2023-05-19T13:18:01;99612.98;;;14.97;63.77
57847;BME280;43675;50.030;21.952;2023-05-19T13:20:28;99613.69;;;14.96;63.80
57847;BME280;43675;50.030;21.952;2023-05-19T13:22:55;99614.65;;;14.94;63.73
57847;BME280;43675;50.030;21.952;2023-05-19T13:25:21;99615.64;;;14.95;63.84